createdAt,value
2022-12-04T00:01:23.881Z,38.28
2022-12-04T00:03:54.598Z,38.28
2022-12-04T00:06:22.520Z,37.67
2022-12-04T00:08:50.222Z,39.53
2022-12-04T00:11:24.899Z,40.65
2022-12-04T00:13:52.281Z,35.33
2022-12-04T00:16:20.762Z,34.75
2022-12-04T00:18:48.381Z,39.17
2022-12-04T00:21:16.319Z,34.58
2022-12-04T00:23:43.893Z,34.63
2022-12-04T00:26:12.134Z,35.47
2022-12-04T00:28:39.713Z,33.97
2022-12-04T00:31:08.221Z,31.80
2022-12-04T00:33:36.124Z,35.70
2022-12-04T00:36:05.251Z,36.60
2022-12-04T00:38:32.513Z,32.72
2022-12-04T00:41:00.939Z,30.70
2022-12-04T00:43:29.185Z,33.67
2022-12-04T00:45:56.656Z,32.88
2022-12-04T00:48:24.095Z,33.35
2022-12-04T00:50:51.487Z,38.10
2022-12-04T00:53:18.759Z,31.15
2022-12-04T00:55:46.030Z,34.40
2022-12-04T00:58:13.321Z,36.70
2022-12-04T01:00:42.022Z,33.55
2022-12-04T01:03:09.888Z,38.63
2022-12-04T01:05:41.252Z,39.38
2022-12-04T01:08:09.067Z,35.33
2022-12-04T01:10:38.671Z,34.08
2022-12-04T01:13:06.027Z,36.72
2022-12-04T01:15:33.269Z,29.50
2022-12-04T01:18:00.564Z,34.03
2022-12-04T01:20:27.821Z,27.17
2022-12-04T01:22:55.081Z,32.67
2022-12-04T01:25:22.330Z,34.58
2022-12-04T01:27:49.614Z,32.20
2022-12-04T01:30:17.076Z,29.25
2022-12-04T01:32:44.432Z,27.67
2022-12-04T01:35:11.749Z,35.17
2022-12-04T01:37:39.298Z,32.63
2022-12-04T01:40:07.283Z,31.25
2022-12-04T01:42:34.568Z,29.05
2022-12-04T01:45:20.674Z,26.42
2022-12-04T01:47:47.933Z,29.83
2022-12-04T01:50:15.396Z,30.20
2022-12-04T01:52:43.008Z,28.88
2022-12-04T01:55:10.247Z,26.35
2022-12-04T01:57:39.100Z,29.95
2022-12-04T02:00:09.018Z,26.92
2022-12-04T02:02:38.740Z,26.50
2022-12-04T02:05:07.450Z,24.70
2022-12-04T02:07:35.093Z,28.65
2022-12-04T02:10:06.678Z,27.20
2022-12-04T02:12:37.624Z,25.95
2022-12-04T02:15:14.129Z,27.73
2022-12-04T02:17:44.481Z,23.88
2022-12-04T02:20:27.424Z,27.00
2022-12-04T02:23:01.878Z,26.25
2022-12-04T02:25:47.853Z,28.90
2022-12-04T02:28:30.629Z,30.08
2022-12-04T02:30:59.686Z,27.00
2022-12-04T02:33:42.152Z,29.05
2022-12-04T02:36:12.143Z,28.25
2022-12-04T02:38:51.388Z,28.27
2022-12-04T02:41:24.828Z,26.95
2022-12-04T02:43:55.646Z,29.77
2022-12-04T02:48:51.203Z,27.27
2022-12-04T02:51:20.357Z,27.90
2022-12-04T02:53:50.969Z,25.73
2022-12-04T02:56:20.555Z,28.55
2022-12-04T02:58:47.786Z,24.70
2022-12-04T03:01:19.692Z,27.80
2022-12-04T03:03:50.576Z,27.00
2022-12-04T03:06:19.517Z,27.65
2022-12-04T03:08:59.744Z,26.73
2022-12-04T03:11:29.472Z,30.15
2022-12-04T03:14:02.837Z,27.05
2022-12-04T03:16:36.286Z,30.17
2022-12-04T03:19:07.372Z,24.58
2022-12-04T03:21:38.411Z,33.47
2022-12-04T03:24:09.793Z,30.98
2022-12-04T03:26:37.046Z,32.58
2022-12-04T03:29:12.647Z,28.35
2022-12-04T03:32:06.243Z,29.75
2022-12-04T03:34:36.228Z,33.25
2022-12-04T03:37:08.739Z,27.50
2022-12-04T03:39:39.326Z,32.58
2022-12-04T03:42:13.145Z,33.05
2022-12-04T03:44:53.877Z,32.05
2022-12-04T03:47:26.397Z,31.85
2022-12-04T03:50:00.697Z,28.65
2022-12-04T03:52:33.622Z,29.90
2022-12-04T03:55:02.965Z,33.58
2022-12-04T03:57:33.118Z,33.65
2022-12-04T04:00:08.168Z,38.38
2022-12-04T04:02:37.293Z,34.25
2022-12-04T04:05:07.228Z,33.25
2022-12-04T04:07:37.113Z,26.53
2022-12-04T04:10:07.278Z,35.38
2022-12-04T04:12:38.407Z,38.00
2022-12-04T04:15:28.016Z,33.08
2022-12-04T04:18:15.097Z,38.88
2022-12-04T04:21:03.599Z,30.75
2022-12-04T04:23:52.849Z,31.58
2022-12-04T04:26:20.154Z,29.55
2022-12-04T04:28:47.463Z,34.67
2022-12-04T04:31:23.249Z,32.08
2022-12-04T04:34:16.966Z,32.25
2022-12-04T04:36:52.331Z,40.05
2022-12-04T04:39:22.621Z,31.38
2022-12-04T04:42:16.264Z,33.35
2022-12-04T04:44:52.509Z,39.30
2022-12-04T04:47:25.491Z,35.80
2022-12-04T04:49:53.600Z,30.98
2022-12-04T04:52:22.662Z,40.97
2022-12-04T04:54:49.964Z,39.15
2022-12-04T04:57:27.328Z,34.95
2022-12-04T04:59:54.861Z,39.03
2022-12-04T05:02:22.397Z,36.05
2022-12-04T05:04:49.664Z,38.08
2022-12-04T05:07:16.898Z,35.45
2022-12-04T05:09:44.168Z,41.63
2022-12-04T05:12:11.397Z,40.97
2022-12-04T05:14:38.898Z,37.03
2022-12-04T05:17:12.383Z,36.28
2022-12-04T05:19:57.128Z,44.67
2022-12-04T05:22:26.962Z,37.65
2022-12-04T05:24:54.467Z,39.42
2022-12-04T05:27:22.355Z,35.97
2022-12-04T05:29:49.938Z,38.67
2022-12-04T05:32:17.161Z,43.25
2022-12-04T05:34:44.440Z,37.88
2022-12-04T05:37:11.659Z,42.97
2022-12-04T05:39:38.925Z,39.47
2022-12-04T05:42:06.280Z,35.88
2022-12-04T05:44:33.520Z,40.17
2022-12-04T05:47:00.851Z,41.15
2022-12-04T05:49:31.595Z,38.95
2022-12-04T05:51:59.067Z,43.08
2022-12-04T05:54:26.367Z,40.97
2022-12-04T05:56:53.633Z,44.63
2022-12-04T05:59:20.907Z,38.45
2022-12-04T06:01:48.371Z,47.53
2022-12-04T06:04:15.795Z,45.05
2022-12-04T06:06:43.092Z,46.30
2022-12-04T06:09:10.396Z,41.45
2022-12-04T06:11:38.610Z,47.95
2022-12-04T06:14:07.293Z,43.22
2022-12-04T06:16:36.393Z,41.22
2022-12-04T06:19:14.804Z,46.28
2022-12-04T06:21:42.862Z,42.70
2022-12-04T06:24:13.332Z,40.33
2022-12-04T06:26:57.509Z,41.35
2022-12-04T06:29:28.396Z,39.00
2022-12-04T06:31:55.978Z,44.50
2022-12-04T06:34:23.288Z,35.58
2022-12-04T06:36:50.573Z,37.75
2022-12-04T06:39:19.084Z,39.97
2022-12-04T06:41:47.728Z,41.45
2022-12-04T06:44:17.830Z,35.28
2022-12-04T06:46:47.119Z,45.50
2022-12-04T06:49:15.148Z,40.97
2022-12-04T06:51:42.401Z,39.90
2022-12-04T06:54:10.335Z,38.75
2022-12-04T06:56:37.591Z,37.25
2022-12-04T06:59:05.773Z,38.78
2022-12-04T07:01:34.558Z,37.22
2022-12-04T07:04:04.055Z,32.22
2022-12-04T07:06:35.695Z,37.63
2022-12-04T07:09:14.976Z,36.25
2022-12-04T07:11:43.333Z,39.83
2022-12-04T07:14:11.305Z,30.02
2022-12-04T07:16:41.329Z,32.40
2022-12-04T07:19:13.282Z,32.72
2022-12-04T07:21:40.820Z,38.13
2022-12-04T07:24:08.209Z,32.83
2022-12-04T07:26:35.537Z,35.85
2022-12-04T07:29:02.878Z,33.35
2022-12-04T07:31:30.740Z,34.33
2022-12-04T07:33:58.540Z,34.17
2022-12-04T07:36:26.455Z,33.25
2022-12-04T07:38:55.381Z,30.52
2022-12-04T07:41:22.961Z,30.52
2022-12-04T07:43:50.224Z,33.88
2022-12-04T07:46:19.167Z,30.17
2022-12-04T07:48:46.584Z,32.35
2022-12-04T07:51:21.090Z,30.88
2022-12-04T07:53:48.772Z,30.67
2022-12-04T07:56:16.456Z,33.15
2022-12-04T07:58:44.090Z,31.65
2022-12-04T08:01:21.663Z,30.23
2022-12-04T08:03:49.978Z,27.88
2022-12-04T08:06:21.024Z,29.80
2022-12-04T08:08:48.858Z,30.85
2022-12-04T08:11:17.477Z,31.30
2022-12-04T08:13:45.164Z,37.38
2022-12-04T08:16:12.989Z,32.30
2022-12-04T08:18:41.432Z,30.50
2022-12-04T08:21:10.081Z,43.78
2022-12-04T08:23:38.091Z,33.08
2022-12-04T08:26:05.888Z,29.95
2022-12-04T08:28:33.308Z,32.40
2022-12-04T08:31:08.168Z,32.10
2022-12-04T08:33:36.024Z,36.67
2022-12-04T08:36:06.409Z,29.30
2022-12-04T08:38:33.676Z,32.15
2022-12-04T08:41:01.514Z,33.28
2022-12-04T08:43:29.169Z,31.25
2022-12-04T08:45:57.667Z,31.85
2022-12-04T08:48:25.129Z,35.83
2022-12-04T08:50:52.377Z,31.55
2022-12-04T08:53:19.876Z,30.98
2022-12-04T08:55:47.446Z,38.67
2022-12-04T08:58:14.829Z,31.95
2022-12-04T09:00:42.172Z,31.85
2022-12-04T09:03:10.322Z,30.85
2022-12-04T09:05:37.574Z,34.33
2022-12-04T09:08:05.009Z,44.72
2022-12-04T09:10:34.430Z,32.70
2022-12-04T09:13:02.006Z,34.95
2022-12-04T09:15:29.538Z,39.30
2022-12-04T09:17:56.863Z,33.88
2022-12-04T09:20:24.124Z,34.53
2022-12-04T09:23:03.932Z,41.45
2022-12-04T09:25:31.594Z,36.33
2022-12-04T09:27:58.920Z,39.65
2022-12-04T09:30:26.284Z,43.00
2022-12-04T09:32:53.617Z,38.97
2022-12-04T09:35:20.968Z,37.63
2022-12-04T09:37:48.277Z,38.95
2022-12-04T09:40:42.408Z,37.25
2022-12-04T09:43:24.152Z,37.55
2022-12-04T09:45:54.442Z,38.03
2022-12-04T09:48:23.160Z,41.17
2022-12-04T09:50:51.216Z,40.10
2022-12-04T09:53:18.498Z,43.28
2022-12-04T09:55:55.803Z,44.42
2022-12-04T09:58:26.130Z,44.72
2022-12-04T10:00:53.846Z,47.22
2022-12-04T10:03:22.347Z,41.90
2022-12-04T10:06:02.434Z,45.65
2022-12-04T10:08:32.603Z,43.17
2022-12-04T10:11:18.743Z,48.17
2022-12-04T10:13:58.137Z,44.53
2022-12-04T10:16:29.488Z,41.13
2022-12-04T10:19:09.081Z,45.55
2022-12-04T10:21:45.453Z,46.28
2022-12-04T10:24:25.616Z,48.05
2022-12-04T10:26:55.717Z,49.53
2022-12-04T10:29:31.368Z,42.40
2022-12-04T10:32:02.515Z,43.28
2022-12-04T10:34:30.729Z,45.45
2022-12-04T10:37:10.358Z,87.43
2022-12-04T10:39:41.581Z,43.60
2022-12-04T10:42:17.710Z,40.75
2022-12-04T10:44:44.968Z,44.95
2022-12-04T10:47:13.088Z,50.13
2022-12-04T10:49:40.649Z,43.17
2022-12-04T10:52:07.908Z,43.70
2022-12-04T10:54:40.705Z,41.33
2022-12-04T10:57:10.341Z,49.15
2022-12-04T10:59:56.941Z,45.53
2022-12-04T11:02:32.905Z,44.90
2022-12-04T11:05:01.799Z,46.22
2022-12-04T11:07:30.371Z,43.63
2022-12-04T11:09:59.070Z,46.53
2022-12-04T11:12:26.795Z,43.35
2022-12-04T11:15:01.308Z,46.00
2022-12-04T11:17:28.928Z,46.55
2022-12-04T11:20:03.707Z,45.17
2022-12-04T11:22:31.986Z,43.50
2022-12-04T11:25:00.238Z,48.88
2022-12-04T11:27:32.612Z,49.97
2022-12-04T11:30:02.665Z,45.28
2022-12-04T11:32:32.334Z,45.80
2022-12-04T11:35:01.874Z,48.88
2022-12-04T11:37:31.188Z,44.10
2022-12-04T11:39:59.126Z,49.13
2022-12-04T11:42:29.079Z,46.58
2022-12-04T11:45:19.666Z,45.55
2022-12-04T11:47:55.989Z,43.33
2022-12-04T11:50:32.531Z,46.83
2022-12-04T11:53:07.464Z,48.10
2022-12-04T11:55:49.659Z,44.83
2022-12-04T11:58:29.142Z,48.05
2022-12-04T12:00:59.267Z,48.45
2022-12-04T12:03:26.684Z,45.55
2022-12-04T12:06:17.392Z,45.22
2022-12-04T12:09:03.561Z,42.03
2022-12-04T12:11:57.424Z,41.25
2022-12-04T12:14:24.800Z,43.53
2022-12-04T12:16:54.965Z,46.83
2022-12-04T12:19:31.503Z,41.90
2022-12-04T12:22:08.332Z,44.85
2022-12-04T12:24:46.976Z,44.47
2022-12-04T12:27:39.222Z,46.03
2022-12-04T12:30:12.439Z,42.17
2022-12-04T12:32:53.987Z,45.22
2022-12-04T12:35:40.289Z,41.60
2022-12-04T12:38:11.273Z,46.45
2022-12-04T12:43:14.244Z,44.03
2022-12-04T12:45:45.722Z,46.78
2022-12-04T12:48:35.347Z,51.30
2022-12-04T12:51:29.191Z,43.17
2022-12-04T12:53:56.367Z,48.75
2022-12-04T12:56:30.816Z,46.78
2022-12-04T12:58:59.561Z,44.25
2022-12-04T13:01:32.720Z,42.33
2022-12-04T13:04:00.057Z,46.83
2022-12-04T13:06:31.174Z,44.15
2022-12-04T13:09:16.474Z,44.83
2022-12-04T13:11:44.749Z,44.90
2022-12-04T13:14:13.177Z,45.10
2022-12-04T13:16:49.434Z,43.80
2022-12-04T13:19:16.680Z,45.63
2022-12-04T13:22:04.198Z,42.75
2022-12-04T13:24:35.155Z,50.15
2022-12-04T13:29:35.469Z,41.60
2022-12-04T13:32:27.200Z,43.20
2022-12-04T13:34:58.185Z,47.50
2022-12-04T13:37:44.135Z,43.20
2022-12-04T13:40:20.239Z,49.03
2022-12-04T13:42:47.529Z,45.05
2022-12-04T13:45:33.339Z,46.03
2022-12-04T13:48:02.315Z,41.60
2022-12-04T13:50:35.034Z,44.90
2022-12-04T13:53:02.560Z,42.78
2022-12-04T13:55:34.260Z,45.90
2022-12-04T13:58:03.086Z,41.38
2022-12-04T14:00:35.262Z,45.25
2022-12-04T14:03:07.864Z,44.95
2022-12-04T14:05:42.360Z,44.35
2022-12-04T14:08:25.986Z,45.38
2022-12-04T14:11:05.459Z,51.65
2022-12-04T14:13:50.048Z,44.75
2022-12-04T14:16:20.855Z,48.10
2022-12-04T14:18:53.077Z,47.63
2022-12-04T14:21:20.365Z,45.90
2022-12-04T14:23:47.796Z,41.55
2022-12-04T14:26:21.268Z,47.50
2022-12-04T14:28:49.031Z,43.20
2022-12-04T14:31:31.742Z,41.33
2022-12-04T14:33:59.008Z,43.50
2022-12-04T14:36:28.184Z,43.75
2022-12-04T14:39:08.480Z,41.63
2022-12-04T14:41:35.764Z,43.65
2022-12-04T14:44:03.141Z,40.45
2022-12-04T14:46:30.465Z,42.22
2022-12-04T14:49:16.430Z,41.15
2022-12-04T14:51:52.177Z,39.88
2022-12-04T14:54:38.148Z,36.78
2022-12-04T14:57:20.709Z,34.03
2022-12-04T14:59:49.197Z,39.13
2022-12-04T15:02:20.946Z,33.83
2022-12-04T15:04:49.803Z,38.25
2022-12-04T15:07:24.273Z,33.40
2022-12-04T15:10:11.219Z,38.58
2022-12-04T15:12:43.085Z,34.13
2022-12-04T15:15:26.826Z,35.47
2022-12-04T15:18:03.305Z,36.33
2022-12-04T15:20:38.681Z,36.15
2022-12-04T15:23:06.502Z,37.90
2022-12-04T15:25:41.385Z,37.58
2022-12-04T15:28:20.151Z,34.78
2022-12-04T15:30:48.707Z,35.67
2022-12-04T15:33:36.630Z,33.88
2022-12-04T15:36:09.195Z,32.15
2022-12-04T15:38:37.161Z,35.35
2022-12-04T15:41:04.453Z,35.03
2022-12-04T15:43:40.678Z,37.70
2022-12-04T15:46:24.684Z,34.53
2022-12-04T15:48:52.041Z,31.17
2022-12-04T15:51:22.012Z,34.13
2022-12-04T15:53:49.313Z,36.40
2022-12-04T15:56:24.774Z,31.50
2022-12-04T15:58:59.938Z,31.80
2022-12-04T16:01:27.686Z,33.67
2022-12-04T16:03:57.646Z,38.70
2022-12-04T16:06:27.679Z,35.20
2022-12-04T16:09:01.796Z,43.93
2022-12-04T16:11:31.079Z,40.15
2022-12-04T16:14:04.230Z,45.30
2022-12-04T16:16:31.667Z,42.08
2022-12-04T16:18:59.024Z,37.72
2022-12-04T16:21:30.147Z,38.30
2022-12-04T16:24:07.269Z,38.53
2022-12-04T16:26:34.904Z,33.20
2022-12-04T16:29:02.334Z,32.83
2022-12-04T16:31:29.778Z,36.53
2022-12-04T16:33:59.562Z,37.33
2022-12-04T16:36:26.852Z,35.15
2022-12-04T16:38:54.323Z,37.03
2022-12-04T16:41:21.889Z,38.83
2022-12-04T16:43:59.327Z,39.35
2022-12-04T16:46:27.645Z,39.30
2022-12-04T16:48:55.231Z,32.88
2022-12-04T16:51:24.230Z,34.65
2022-12-04T16:53:52.250Z,34.90
2022-12-04T16:56:20.061Z,39.72
2022-12-04T16:58:47.595Z,36.22
2022-12-04T17:01:29.058Z,42.47
2022-12-04T17:03:56.405Z,41.13
2022-12-04T17:06:23.704Z,33.97
2022-12-04T17:08:50.968Z,36.90
2022-12-04T17:11:18.371Z,37.47
2022-12-04T17:13:45.767Z,40.88
2022-12-04T17:16:15.039Z,35.40
2022-12-04T17:18:43.316Z,37.35
2022-12-04T17:21:11.732Z,35.83
2022-12-04T17:23:39.200Z,33.40
2022-12-04T17:26:08.482Z,36.08
2022-12-04T17:28:36.543Z,37.20
2022-12-04T17:31:06.206Z,34.90
2022-12-04T17:33:33.642Z,42.17
2022-12-04T17:36:00.896Z,35.58
2022-12-04T17:38:28.851Z,37.33
2022-12-04T17:41:00.258Z,34.55
2022-12-04T17:43:29.096Z,37.85
2022-12-04T17:45:56.934Z,33.17
2022-12-04T17:48:24.381Z,35.00
2022-12-04T17:50:51.777Z,39.63
2022-12-04T17:53:19.747Z,40.75
2022-12-04T17:55:47.038Z,39.40
2022-12-04T17:58:14.313Z,41.20
2022-12-04T18:00:41.629Z,40.30
2022-12-04T18:03:09.007Z,35.42
2022-12-04T18:05:36.289Z,36.63
2022-12-04T18:08:03.579Z,36.85
2022-12-04T18:10:31.085Z,39.70
2022-12-04T18:12:58.364Z,38.25
2022-12-04T18:15:25.625Z,39.05
2022-12-04T18:17:52.935Z,43.45
2022-12-04T18:20:20.185Z,44.45
2022-12-04T18:22:47.448Z,44.60
2022-12-04T18:25:14.712Z,43.85
2022-12-04T18:27:42.320Z,44.88
2022-12-04T18:30:10.104Z,40.95
2022-12-04T18:32:37.409Z,40.58
2022-12-04T18:35:04.776Z,37.92
2022-12-04T18:37:34.121Z,50.08
2022-12-04T18:40:06.380Z,61.97
2022-12-04T18:42:34.204Z,43.58
2022-12-04T18:45:01.425Z,43.65
2022-12-04T18:47:29.334Z,50.58
2022-12-04T18:49:56.857Z,47.97
2022-12-04T18:52:24.357Z,47.05
2022-12-04T18:54:51.619Z,49.67
2022-12-04T18:57:18.851Z,49.83
2022-12-04T18:59:48.971Z,46.13
2022-12-04T19:02:16.282Z,45.65
2022-12-04T19:04:44.077Z,50.28
2022-12-04T19:07:11.367Z,55.85
2022-12-04T19:10:10.045Z,52.85
2022-12-04T19:12:25.939Z,50.97
2022-12-04T19:14:53.172Z,55.38
2022-12-04T19:17:20.997Z,54.45
2022-12-04T19:19:48.422Z,53.47
2022-12-04T19:22:15.765Z,56.63
2022-12-04T19:24:43.100Z,60.38
2022-12-04T19:27:12.200Z,56.42
2022-12-04T19:29:40.613Z,53.30
2022-12-04T19:32:08.293Z,53.97
2022-12-04T19:34:35.883Z,56.72
2022-12-04T19:37:03.458Z,58.67
2022-12-04T19:39:30.736Z,60.83
2022-12-04T19:41:58.269Z,61.05
2022-12-04T19:44:47.836Z,64.57
2022-12-04T19:47:12.773Z,66.05
2022-12-04T19:49:40.072Z,62.17
2022-12-04T19:52:07.452Z,64.93
2022-12-04T19:54:34.716Z,59.53
2022-12-04T19:57:01.931Z,60.35
2022-12-04T19:59:34.624Z,62.80
2022-12-04T20:02:03.819Z,55.65
2022-12-04T20:04:31.055Z,59.97
2022-12-04T20:06:58.289Z,58.50
2022-12-04T20:09:25.644Z,62.85
2022-12-04T20:11:53.729Z,61.58
2022-12-04T20:14:21.233Z,60.75
2022-12-04T20:16:48.710Z,63.70
2022-12-04T20:19:17.237Z,68.93
2022-12-04T20:21:45.244Z,64.30
2022-12-04T20:24:16.417Z,66.00
2022-12-04T20:26:44.656Z,73.72
2022-12-04T20:29:15.286Z,70.18
2022-12-04T20:31:44.445Z,69.10
2022-12-04T20:34:14.075Z,72.10
2022-12-04T20:36:42.744Z,69.40
2022-12-04T20:39:10.625Z,72.57
2022-12-04T20:41:38.331Z,73.47
2022-12-04T20:44:06.400Z,70.57
2022-12-04T20:46:35.239Z,71.30
2022-12-04T20:49:04.392Z,75.60
2022-12-04T20:51:32.952Z,71.28
2022-12-04T20:54:00.928Z,72.13
2022-12-04T20:56:30.226Z,75.28
2022-12-04T20:58:58.304Z,72.40
2022-12-04T21:01:26.135Z,72.18
2022-12-04T21:03:53.720Z,70.82
2022-12-04T21:06:22.628Z,74.97
2022-12-04T21:08:57.050Z,75.75
2022-12-04T21:11:25.240Z,68.05
2022-12-04T21:14:11.191Z,71.28
2022-12-04T21:16:39.032Z,75.90
2022-12-04T21:19:07.338Z,67.38
2022-12-04T21:21:36.303Z,64.75
2022-12-04T21:24:04.084Z,74.53
2022-12-04T21:26:31.549Z,70.18
2022-12-04T21:28:59.148Z,69.28
2022-12-04T21:31:28.909Z,67.97
2022-12-04T21:33:56.722Z,46.05
2022-12-04T21:36:24.225Z,66.93
2022-12-04T21:38:51.618Z,63.13
2022-12-04T21:41:37.843Z,62.30
2022-12-04T21:44:05.756Z,78.55
2022-12-04T21:46:33.063Z,61.30
2022-12-04T21:49:00.530Z,61.22
2022-12-04T21:51:55.878Z,63.53
2022-12-04T21:54:15.381Z,64.97
2022-12-04T21:56:42.720Z,61.38
2022-12-04T21:59:10.373Z,63.88
2022-12-04T22:01:40.026Z,60.75
2022-12-04T22:04:07.361Z,60.22
2022-12-04T22:06:36.368Z,60.80
2022-12-04T22:09:04.992Z,63.92
2022-12-04T22:11:32.219Z,71.30
2022-12-04T22:13:59.489Z,66.78
2022-12-04T22:16:30.235Z,72.30
2022-12-04T22:18:58.936Z,189.13
2022-12-04T22:21:26.610Z,71.78
2022-12-04T22:24:01.230Z,72.38
2022-12-04T22:26:29.618Z,69.57
2022-12-04T22:28:57.665Z,63.90
2022-12-04T22:31:26.729Z,62.70
2022-12-04T22:33:55.238Z,63.83
2022-12-04T22:36:23.861Z,61.25
2022-12-04T22:39:09.685Z,60.15
2022-12-04T22:41:38.053Z,62.17
2022-12-04T22:44:05.580Z,68.18
2022-12-04T22:46:33.114Z,62.22
2022-12-04T22:49:00.699Z,51.75
2022-12-04T22:51:28.563Z,60.30
2022-12-04T22:53:57.296Z,51.83
2022-12-04T22:56:25.698Z,54.95
2022-12-04T22:58:53.252Z,52.25
2022-12-04T23:01:24.806Z,57.08
2022-12-04T23:03:52.472Z,58.58
2022-12-04T23:06:20.830Z,55.60
2022-12-04T23:08:48.572Z,62.70
2022-12-04T23:11:17.322Z,58.05
2022-12-04T23:13:45.062Z,64.15
2022-12-04T23:16:16.911Z,62.22
2022-12-04T23:18:47.148Z,61.65
2022-12-04T23:21:15.423Z,66.65
2022-12-04T23:23:44.131Z,57.33
2022-12-04T23:26:12.873Z,59.05
2022-12-04T23:28:40.184Z,70.85
2022-12-04T23:31:07.565Z,56.70
2022-12-04T23:33:34.893Z,61.53
2022-12-04T23:36:02.661Z,65.75
2022-12-04T23:38:30.641Z,60.00
2022-12-04T23:41:04.996Z,71.47
2022-12-04T23:43:32.266Z,68.50
2022-12-04T23:45:59.657Z,69.93
2022-12-04T23:48:27.322Z,62.05
2022-12-04T23:50:54.828Z,65.10
2022-12-04T23:53:22.288Z,66.70
2022-12-04T23:55:58.352Z,67.80
2022-12-04T23:58:26.089Z,69.22
